Time;durP1;ratioP1;P1;durP2;ratioP2;P2;SDS_P1;SDS_P2;PMS_P1;PMS_P2;Temp;Humidity;BMP_temperature;BMP_pressure;BME280_temperature;BME280_humidity;BME280_pressure;Samples;Min_cycle;Max_cycle;Signal;HPM_P1;HPM_P2
2021/09/13 00:01:21;;;;;;;6.13;2.78;;;18.80;99.90;;;;;;5090305;28;20043;-67
2021/09/13 00:03:46;;;;;;;8.05;2.67;;;18.80;99.90;;;;;;5089640;28;20626;-62
2021/09/13 00:06:12;;;;;;;3.20;1.92;;;18.70;99.90;;;;;;5090521;28;20035;-63
2021/09/13 00:08:37;;;;;;;3.83;1.88;;;18.70;99.90;;;;;;5091297;28;20460;-62
2021/09/13 00:11:03;;;;;;;4.47;2.15;;;18.70;99.90;;;;;;5091813;28;20089;-62
2021/09/13 00:13:29;;;;;;;4.10;2.75;;;18.70;99.90;;;;;;5091046;28;20330;-62
2021/09/13 00:15:55;;;;;;;3.25;2.58;;;18.60;99.90;;;;;;5091508;28;20044;-62
2021/09/13 00:18:22;;;;;;;3.15;2.10;;;18.60;99.90;;;;;;5089887;28;20020;-62
2021/09/13 00:20:48;;;;;;;3.97;2.47;;;18.50;99.90;;;;;;5090637;28;20036;-62
2021/09/13 00:23:13;;;;;;;3.85;2.38;;;18.60;99.90;;;;;;5088926;28;20020;-62
2021/09/13 00:25:39;;;;;;;4.07;2.20;;;18.60;99.90;;;;;;5090396;28;20477;-62
2021/09/13 00:28:05;;;;;;;4.82;2.40;;;18.60;99.90;;;;;;5091217;28;20076;-61
2021/09/13 00:30:31;;;;;;;3.88;2.42;;;18.40;99.90;;;;;;5089580;28;20504;-62
2021/09/13 00:32:56;;;;;;;3.40;2.45;;;18.40;99.90;;;;;;5089186;28;20048;-61
2021/09/13 00:35:25;;;;;;;4.47;2.30;;;18.50;99.90;;;;;;5090804;28;20120;-62
2021/09/13 00:37:51;;;;;;;2.78;1.92;;;18.30;99.90;;;;;;5090836;28;20161;-61
2021/09/13 00:40:17;;;;;;;3.28;2.15;;;18.20;99.90;;;;;;5089800;28;20101;-61
2021/09/13 00:42:42;;;;;;;3.58;1.90;;;18.30;99.90;;;;;;5090366;28;20142;-61
2021/09/13 00:45:08;;;;;;;2.47;2.28;;;18.30;99.90;;;;;;5090950;28;20036;-62
2021/09/13 00:47:34;;;;;;;2.00;1.63;;;18.20;99.90;;;;;;5089084;28;20032;-64
2021/09/13 00:50:00;;;;;;;3.08;2.00;;;18.10;99.90;;;;;;5089748;28;20362;-62
2021/09/13 00:52:25;;;;;;;2.83;2.42;;;18.10;99.90;;;;;;5090930;28;20132;-72
2021/09/13 00:54:51;;;;;;;3.88;2.20;;;18.10;99.90;;;;;;5090899;28;20023;-61
2021/09/13 00:57:17;;;;;;;2.35;2.08;;;18.00;99.90;;;;;;5090868;28;20034;-62
2021/09/13 00:59:43;;;;;;;2.35;2.00;;;17.90;99.90;;;;;;5089283;28;20365;-62
2021/09/13 01:02:09;;;;;;;3.50;1.80;;;17.90;99.90;;;;;;5090899;28;20036;-62
2021/09/13 01:04:34;;;;;;;4.22;2.55;;;17.90;99.90;;;;;;5090566;28;20552;-64
2021/09/13 01:07:00;;;;;;;2.90;2.10;;;17.70;99.90;;;;;;5090757;28;20184;-61
2021/09/13 01:09:26;;;;;;;4.45;2.40;;;17.70;99.90;;;;;;5090830;28;20059;-72
2021/09/13 01:11:52;;;;;;;5.00;2.33;;;17.70;99.90;;;;;;5091007;28;20055;-61
2021/09/13 01:14:19;;;;;;;3.58;2.53;;;17.80;99.90;;;;;;5089231;28;20031;-62
2021/09/13 01:16:45;;;;;;;5.55;2.70;;;17.80;99.90;;;;;;5090434;28;20084;-62
2021/09/13 01:19:11;;;;;;;3.53;1.90;;;17.70;99.90;;;;;;5090641;28;20038;-61
2021/09/13 01:21:39;;;;;;;3.22;1.77;;;17.80;99.90;;;;;;5088886;28;20518;-63
2021/09/13 01:24:06;;;;;;;5.72;1.98;;;17.70;99.90;;;;;;5089649;28;20668;-63
2021/09/13 01:26:31;;;;;;;3.42;2.30;;;17.70;99.90;;;;;;5089720;28;20571;-62
2021/09/13 01:28:57;;;;;;;2.55;2.17;;;17.60;99.90;;;;;;5089287;28;20106;-63
2021/09/13 01:31:24;;;;;;;4.63;2.58;;;17.60;99.90;;;;;;5072512;28;20036;-62
2021/09/13 01:33:49;;;;;;;12.70;2.35;;;17.50;99.90;;;;;;5089626;28;20028;-62
2021/09/13 01:36:15;;;;;;;3.42;1.60;;;17.60;99.90;;;;;;5088804;28;20038;-61
2021/09/13 01:38:41;;;;;;;2.45;2.20;;;17.70;99.90;;;;;;5084021;28;20428;-62
2021/09/13 01:41:06;;;;;;;4.97;2.50;;;17.60;99.90;;;;;;5068421;28;20032;-61
2021/09/13 01:43:32;;;;;;;6.57;2.53;;;17.60;99.90;;;;;;5070750;28;20115;-62
2021/09/13 01:45:58;;;;;;;5.38;2.35;;;17.70;99.90;;;;;;5069577;28;20033;-63
2021/09/13 01:48:23;;;;;;;5.78;2.25;;;17.60;99.90;;;;;;5069693;28;20047;-61
2021/09/13 01:50:49;;;;;;;5.07;2.17;;;17.60;99.90;;;;;;5067926;28;20020;-62
2021/09/13 01:53:15;;;;;;;6.57;2.50;;;17.60;99.90;;;;;;5070116;28;20059;-62
2021/09/13 01:55:41;;;;;;;3.53;2.05;;;17.60;99.90;;;;;;5069249;28;20050;-63
2021/09/13 01:58:06;;;;;;;4.93;2.78;;;17.60;99.90;;;;;;5068878;28;20032;-62
2021/09/13 02:00:32;;;;;;;3.50;2.35;;;17.60;99.90;;;;;;5068912;28;20021;-62
2021/09/13 02:02:58;;;;;;;3.25;2.30;;;17.50;99.90;;;;;;5069782;28;20044;-64
2021/09/13 02:05:24;;;;;;;5.80;2.30;;;17.50;99.90;;;;;;5069851;28;20043;-65
2021/09/13 02:07:49;;;;;;;6.60;2.58;;;17.50;99.90;;;;;;5069578;28;20416;-62
2021/09/13 02:10:15;;;;;;;4.32;2.35;;;17.40;99.90;;;;;;5068414;28;20471;-61
2021/09/13 02:12:40;;;;;;;4.05;2.75;;;17.40;99.90;;;;;;5069072;28;20024;-61
2021/09/13 02:15:07;;;;;;;6.18;2.90;;;17.40;99.90;;;;;;5068360;28;20104;-61
2021/09/13 02:17:32;;;;;;;3.15;2.58;;;17.40;99.90;;;;;;5068995;28;20031;-62
2021/09/13 02:19:58;;;;;;;7.35;2.53;;;17.30;99.90;;;;;;5068153;28;20017;-63
2021/09/13 02:22:24;;;;;;;6.05;2.63;;;17.20;99.90;;;;;;5069277;28;20044;-62
2021/09/13 02:24:49;;;;;;;4.20;2.50;;;17.20;99.90;;;;;;5068181;28;20508;-61
2021/09/13 02:27:15;;;;;;;4.35;2.80;;;17.20;99.90;;;;;;5070652;28;20366;-61
2021/09/13 02:29:40;;;;;;;4.25;2.35;;;17.10;99.90;;;;;;5071288;28;20078;-65
2021/09/13 02:32:07;;;;;;;3.08;2.30;;;17.20;99.90;;;;;;5072170;28;20052;-62
2021/09/13 02:34:32;;;;;;;5.18;3.03;;;17.20;99.90;;;;;;5072248;28;20028;-62
2021/09/13 02:36:58;;;;;;;5.57;2.60;;;17.20;99.90;;;;;;5073325;28;20031;-62
2021/09/13 02:39:24;;;;;;;4.00;3.03;;;17.20;99.90;;;;;;5073104;28;20024;-62
2021/09/13 02:41:49;;;;;;;4.55;2.50;;;17.30;99.90;;;;;;5071168;28;20032;-62
2021/09/13 02:44:15;;;;;;;4.07;2.67;;;17.20;99.90;;;;;;5071364;28;20040;-62
2021/09/13 02:46:40;;;;;;;4.20;2.30;;;17.20;99.90;;;;;;5072328;28;20036;-62
2021/09/13 02:49:06;;;;;;;3.50;2.50;;;17.10;99.90;;;;;;5071916;28;20037;-62
2021/09/13 02:51:32;;;;;;;2.83;2.40;;;17.00;99.90;;;;;;5072458;28;20025;-67
2021/09/13 02:53:57;;;;;;;3.88;2.38;;;17.10;99.90;;;;;;5073004;28;20042;-62
2021/09/13 02:56:23;;;;;;;5.93;2.47;;;17.10;99.90;;;;;;5071988;28;20029;-63
2021/09/13 02:58:49;;;;;;;3.65;2.47;;;17.10;99.90;;;;;;5072073;28;20029;-62
2021/09/13 03:01:14;;;;;;;6.88;2.83;;;17.00;99.90;;;;;;5072870;28;20111;-62
2021/09/13 03:03:42;;;;;;;4.38;2.78;;;16.90;99.90;;;;;;5072265;28;20032;-62
2021/09/13 03:06:08;;;;;;;3.50;2.60;;;16.80;99.90;;;;;;5071655;28;20127;-62
2021/09/13 03:08:34;;;;;;;5.75;3.03;;;16.80;99.90;;;;;;5072168;28;20028;-62
2021/09/13 03:11:00;;;;;;;3.45;2.47;;;16.80;99.90;;;;;;5073181;28;20094;-62
2021/09/13 03:13:25;;;;;;;3.47;2.90;;;16.80;99.90;;;;;;5071259;28;20032;-71
2021/09/13 03:15:51;;;;;;;4.50;2.53;;;16.80;99.90;;;;;;5070900;28;20020;-62
2021/09/13 03:18:16;;;;;;;5.13;2.72;;;16.80;99.90;;;;;;5071345;28;20450;-62
2021/09/13 03:20:42;;;;;;;3.70;3.00;;;16.70;99.90;;;;;;5071604;28;20035;-62
2021/09/13 03:23:08;;;;;;;5.38;3.25;;;16.60;99.90;;;;;;5072114;28;20029;-62
2021/09/13 03:25:33;;;;;;;4.90;3.05;;;16.60;99.90;;;;;;5069775;28;20373;-62
2021/09/13 03:27:59;;;;;;;4.40;2.67;;;16.50;99.90;;;;;;5072258;28;20386;-61
2021/09/13 03:30:25;;;;;;;6.88;2.92;;;16.50;99.90;;;;;;5071525;28;20490;-70
2021/09/13 03:32:51;;;;;;;5.13;2.72;;;16.50;99.90;;;;;;5070796;28;20036;-61
2021/09/13 03:35:17;;;;;;;4.40;2.95;;;16.50;99.90;;;;;;5072320;28;20417;-61
2021/09/13 03:37:42;;;;;;;4.43;3.30;;;16.40;99.90;;;;;;5071400;28;20108;-61
2021/09/13 03:40:09;;;;;;;2.97;2.58;;;16.40;99.90;;;;;;5072625;28;20110;-61
2021/09/13 03:42:34;;;;;;;7.97;3.47;;;16.40;99.90;;;;;;5069966;28;20115;-61
2021/09/13 03:45:00;;;;;;;5.75;3.25;;;16.40;99.90;;;;;;5072322;28;20482;-61
2021/09/13 03:47:26;;;;;;;4.65;2.90;;;16.40;99.90;;;;;;5071435;28;20478;-70
2021/09/13 03:49:51;;;;;;;5.43;2.67;;;16.40;99.90;;;;;;5072566;28;20020;-63
2021/09/13 03:52:17;;;;;;;6.35;3.05;;;16.30;99.90;;;;;;5070691;28;20378;-62
2021/09/13 03:54:42;;;;;;;3.67;2.60;;;16.40;99.90;;;;;;5071059;28;20048;-63
2021/09/13 03:57:08;;;;;;;6.82;4.05;;;16.30;99.90;;;;;;5071794;28;20032;-62
2021/09/13 03:59:34;;;;;;;6.25;3.63;;;16.30;99.90;;;;;;5071593;28;20498;-61
2021/09/13 04:02:00;;;;;;;5.25;3.00;;;16.30;99.90;;;;;;5071847;28;20132;-62
2021/09/13 04:04:28;;;;;;;5.25;2.90;;;16.20;99.90;;;;;;5071592;28;20032;-70
2021/09/13 04:08:00;;;;;;;3.75;3.00;;;16.20;99.90;;;;;;5071264;28;20028;-60
2021/09/13 04:12:09;;;;;;;3.88;2.97;;;16.30;99.90;;;;;;5071672;28;20158;-61
2021/09/13 04:14:34;;;;;;;7.38;2.70;;;16.30;99.90;;;;;;5069160;28;20052;-61
2021/09/13 04:17:00;;;;;;;4.60;2.90;;;16.30;99.90;;;;;;5070243;28;20033;-61
2021/09/13 04:19:26;;;;;;;7.30;2.80;;;16.30;99.90;;;;;;5070653;28;20104;-69
2021/09/13 04:21:54;;;;;;;5.00;3.22;;;16.40;99.90;;;;;;5068812;28;20024;-61
2021/09/13 04:24:20;;;;;;;12.57;3.33;;;16.30;99.90;;;;;;5069240;28;20377;-62
2021/09/13 04:26:45;;;;;;;4.60;2.85;;;16.40;99.90;;;;;;5070030;28;20115;-61
2021/09/13 04:29:12;;;;;;;6.15;3.47;;;16.40;99.90;;;;;;5070979;28;20119;-61
2021/09/13 04:31:37;;;;;;;8.52;3.53;;;16.30;99.90;;;;;;5069510;28;20044;-61
2021/09/13 04:34:03;;;;;;;4.32;3.42;;;16.40;99.90;;;;;;5067779;28;20090;-61
2021/09/13 04:36:29;;;;;;;4.05;3.17;;;16.30;99.90;;;;;;5067378;28;20485;-65
2021/09/13 04:38:55;;;;;;;5.10;3.45;;;16.40;99.90;;;;;;5067924;28;20124;-63
2021/09/13 04:41:20;;;;;;;4.18;2.72;;;16.40;99.90;;;;;;5067575;28;20354;-65
2021/09/13 04:43:46;;;;;;;5.25;3.15;;;16.40;99.90;;;;;;5066672;28;20302;-62
2021/09/13 04:46:12;;;;;;;6.72;3.55;;;16.30;99.90;;;;;;5067573;28;20521;-62
2021/09/13 04:48:37;;;;;;;6.65;3.17;;;16.30;99.90;;;;;;5066060;28;20131;-62
2021/09/13 04:51:03;;;;;;;6.07;3.10;;;16.30;99.90;;;;;;5051361;28;20423;-61
2021/09/13 04:53:29;;;;;;;8.93;3.25;;;16.30;99.90;;;;;;5067615;28;20127;-63
2021/09/13 04:55:54;;;;;;;7.32;3.90;;;16.30;99.90;;;;;;5068022;28;20032;-61
2021/09/13 04:58:20;;;;;;;7.85;4.70;;;16.40;99.90;;;;;;5051304;28;20028;-69
2021/09/13 05:00:46;;;;;;;9.57;3.92;;;16.30;99.90;;;;;;5067392;28;20044;-61
2021/09/13 05:03:11;;;;;;;9.55;3.75;;;16.30;99.90;;;;;;5068106;28;20115;-62
2021/09/13 05:05:37;;;;;;;8.20;3.42;;;16.40;99.90;;;;;;5062800;28;20181;-62
2021/09/13 05:08:03;;;;;;;7.97;3.03;;;16.40;99.90;;;;;;5068815;28;20036;-62
2021/09/13 05:10:29;;;;;;;4.35;3.20;;;16.50;99.90;;;;;;5069342;28;20025;-65
2021/09/13 05:12:54;;;;;;;7.18;3.17;;;16.40;99.90;;;;;;5069941;28;20039;-62
2021/09/13 05:15:20;;;;;;;6.45;4.50;;;16.40;99.90;;;;;;5070318;28;20025;-62
2021/09/13 05:17:46;;;;;;;37.95;4.32;;;16.30;99.90;;;;;;5069135;28;20020;-62
2021/09/13 05:20:13;;;;;;;5.47;3.60;;;16.30;99.90;;;;;;5070057;28;20164;-64
2021/09/13 05:22:39;;;;;;;5.63;3.28;;;16.30;99.90;;;;;;5069235;28;20029;-62
2021/09/13 05:25:05;;;;;;;7.63;3.95;;;16.30;99.90;;;;;;5069688;28;20203;-62
2021/09/13 05:27:31;;;;;;;5.05;3.05;;;16.30;99.90;;;;;;5067796;28;20431;-62
2021/09/13 05:29:57;;;;;;;6.35;3.42;;;16.30;99.90;;;;;;5069805;28;20095;-63
2021/09/13 05:32:23;;;;;;;4.28;3.10;;;16.30;99.90;;;;;;5068090;28;20168;-64
2021/09/13 05:34:49;;;;;;;6.57;3.45;;;16.20;99.90;;;;;;5067504;28;20509;-62
2021/09/13 05:37:15;;;;;;;6.40;3.58;;;16.10;99.90;;;;;;5068431;28;20043;-61
2021/09/13 05:39:40;;;;;;;7.03;3.90;;;16.20;99.90;;;;;;5067294;28;20024;-62
2021/09/13 05:42:06;;;;;;;6.35;3.67;;;16.30;99.90;;;;;;5069876;28;20028;-63
2021/09/13 05:44:32;;;;;;;4.35;3.63;;;16.40;99.90;;;;;;5068686;28;20028;-62
2021/09/13 05:46:58;;;;;;;8.27;3.20;;;16.40;99.90;;;;;;5070025;28;20025;-63
2021/09/13 05:49:24;;;;;;;7.50;3.50;;;16.50;99.90;;;;;;5069750;28;20087;-68
2021/09/13 05:51:53;;;;;;;4.43;3.65;;;16.50;99.90;;;;;;5069274;28;20028;-63
2021/09/13 05:54:25;;;;;;;5.03;3.55;;;16.50;99.90;;;;;;5069504;28;20020;-62
2021/09/13 05:56:55;;;;;;;7.93;3.83;;;16.50;99.90;;;;;;5068051;28;20439;-61
2021/09/13 05:59:22;;;;;;;4.88;3.25;;;16.50;99.90;;;;;;5070030;28;20025;-61
2021/09/13 06:01:49;;;;;;;8.18;3.28;;;16.60;99.90;;;;;;5067741;28;20085;-62
2021/09/13 06:04:15;;;;;;;6.47;4.05;;;16.70;99.90;;;;;;5069641;28;20029;-63
2021/09/13 06:06:41;;;;;;;6.10;4.03;;;16.80;99.90;;;;;;5067622;28;20035;-63
2021/09/13 06:09:08;;;;;;;6.35;3.20;;;16.80;99.90;;;;;;5069578;28;20033;-63
2021/09/13 06:11:34;;;;;;;9.30;3.75;;;16.70;99.90;;;;;;5068259;28;20474;-62
2021/09/13 06:13:59;;;;;;;5.20;3.92;;;16.80;99.90;;;;;;5069259;28;20055;-62
2021/09/13 06:16:26;;;;;;;6.25;3.20;;;16.90;99.90;;;;;;5068256;28;20033;-73
2021/09/13 06:18:51;;;;;;;3.83;3.30;;;17.00;99.90;;;;;;5068922;28;20429;-62
2021/09/13 06:21:18;;;;;;;9.82;5.05;;;17.00;99.90;;;;;;5067571;28;20021;-62
2021/09/13 06:23:45;;;;;;;11.02;5.75;;;17.00;99.90;;;;;;5067497;28;20025;-62
2021/09/13 06:26:12;;;;;;;8.57;4.05;;;17.00;99.90;;;;;;5069712;28;20040;-62
2021/09/13 06:28:38;;;;;;;12.18;3.80;;;17.00;99.90;;;;;;5068167;28;20035;-63
2021/09/13 06:31:04;;;;;;;9.50;3.90;;;17.10;99.90;;;;;;5067833;28;20468;-63
2021/09/13 06:33:33;;;;;;;5.93;3.90;;;17.10;99.90;;;;;;5067370;28;20120;-62
2021/09/13 06:35:59;;;;;;;4.50;3.80;;;17.20;99.90;;;;;;5068831;28;20517;-62
2021/09/13 06:38:27;;;;;;;10.52;3.80;;;17.20;99.90;;;;;;5069380;28;20478;-69
2021/09/13 06:40:53;;;;;;;5.32;3.63;;;17.30;99.90;;;;;;5066423;28;20036;-62
2021/09/13 06:43:19;;;;;;;6.03;4.13;;;17.40;99.90;;;;;;5066203;28;20039;-63
2021/09/13 06:45:46;;;;;;;7.03;4.05;;;17.70;99.90;;;;;;5049054;28;20417;-62
2021/09/13 06:48:16;;;;;;;7.30;4.22;;;17.80;99.90;;;;;;5049588;28;20162;-62
2021/09/13 06:50:43;;;;;;;7.38;3.42;;;17.90;99.90;;;;;;5066032;28;20028;-63
2021/09/13 06:53:09;;;;;;;5.50;3.85;;;18.10;99.90;;;;;;5049173;28;20378;-62
2021/09/13 06:55:39;;;;;;;5.07;3.20;;;18.20;99.90;;;;;;5049060;28;20117;-62
2021/09/13 06:58:06;;;;;;;5.60;3.17;;;18.40;99.90;;;;;;5066461;28;20462;-63
2021/09/13 07:00:33;;;;;;;3.72;3.00;;;18.70;99.90;;;;;;5048614;28;20071;-57
2021/09/13 07:02:59;;;;;;;2.60;1.60;;;18.80;99.90;;;;;;5066408;28;20049;-53
2021/09/13 07:05:25;;;;;;;3.13;2.00;;;19.90;99.90;;;;;;5066256;28;20032;-58
2021/09/13 07:07:51;;;;;;;4.43;1.92;;;21.00;99.90;;;;;;5049449;28;20031;-51
2021/09/13 07:10:17;;;;;;;4.38;2.15;;;21.50;99.90;;;;;;5032637;28;20024;-49
2021/09/13 07:12:45;;;;;;;8.43;2.53;;;21.90;99.90;;;;;;5071848;28;20044;-50
2021/09/13 07:15:11;;;;;;;6.03;2.67;;;22.20;99.90;;;;;;5092299;28;20032;-50
2021/09/13 07:17:37;;;;;;;4.00;2.25;;;22.40;99.90;;;;;;5091066;28;20029;-51
2021/09/13 07:20:03;;;;;;;4.10;2.30;;;22.50;99.90;;;;;;5089882;28;20069;-52
2021/09/13 07:22:29;;;;;;;5.53;2.40;;;22.70;99.90;;;;;;5090576;28;20020;-51
2021/09/13 07:24:55;;;;;;;2.55;2.10;;;22.90;99.90;;;;;;5090871;28;20040;-50
2021/09/13 07:27:21;;;;;;;9.00;2.22;;;22.90;99.90;;;;;;5091716;28;20032;-50
2021/09/13 07:29:46;;;;;;;8.27;1.92;;;22.90;99.90;;;;;;5090888;28;20016;-51
2021/09/13 07:32:12;;;;;;;5.97;2.00;;;22.90;99.30;;;;;;5090685;28;20131;-50
2021/09/13 07:34:38;;;;;;;10.57;2.63;;;22.90;99.80;;;;;;5090205;28;20020;-51
2021/09/13 07:37:04;;;;;;;11.27;2.67;;;23.10;99.50;;;;;;5090515;28;20760;-51
2021/09/13 07:39:30;;;;;;;4.68;2.47;;;23.20;99.10;;;;;;5089855;28;20026;-50
2021/09/13 07:41:57;;;;;;;7.00;2.10;;;23.30;98.90;;;;;;5092419;28;20107;-52
2021/09/13 07:44:23;;;;;;;6.95;1.65;;;23.50;98.80;;;;;;5091082;28;20564;-50
2021/09/13 07:46:49;;;;;;;5.65;2.10;;;23.50;98.60;;;;;;5090805;28;20115;-51
2021/09/13 07:49:14;;;;;;;3.80;2.45;;;23.50;98.50;;;;;;5092488;28;20085;-50
2021/09/13 07:51:40;;;;;;;5.07;2.15;;;23.50;97.50;;;;;;5090651;28;20028;-50
2021/09/13 07:54:06;;;;;;;5.88;2.15;;;23.50;97.90;;;;;;5092783;28;20032;-51
2021/09/13 07:56:35;;;;;;;8.13;2.30;;;23.50;98.20;;;;;;5090834;28;20389;-51
2021/09/13 07:59:03;;;;;;;9.50;2.85;;;23.70;98.00;;;;;;5091881;28;20034;-50
2021/09/13 08:01:32;;;;;;;6.38;2.00;;;23.70;97.60;;;;;;5092607;28;20039;-51
2021/09/13 08:03:58;;;;;;;5.68;2.13;;;23.90;97.20;;;;;;5092928;28;20020;-51
2021/09/13 08:06:23;;;;;;;3.28;2.10;;;23.90;97.30;;;;;;5092610;28;20040;-50
2021/09/13 08:08:49;;;;;;;7.28;1.90;;;23.90;97.20;;;;;;5090104;28;20020;-51
2021/09/13 08:11:15;;;;;;;8.75;2.75;;;24.10;97.00;;;;;;5089175;28;20040;-51
2021/09/13 08:13:42;;;;;;;2.55;1.75;;;24.10;96.50;;;;;;5090154;28;20153;-51
2021/09/13 08:16:09;;;;;;;3.13;1.83;;;24.30;97.10;;;;;;5089774;28;20061;-51
2021/09/13 08:18:35;;;;;;;6.18;1.67;;;24.30;96.70;;;;;;5087816;28;20028;-54
2021/09/13 08:21:01;;;;;;;7.60;2.58;;;24.40;96.60;;;;;;5089223;28;20035;-51
2021/09/13 08:23:27;;;;;;;5.85;2.28;;;24.50;96.20;;;;;;5089273;28;20051;-58
2021/09/13 08:25:53;;;;;;;4.97;1.92;;;24.50;96.00;;;;;;5088476;28;20047;-51
2021/09/13 08:28:20;;;;;;;3.95;2.05;;;24.40;96.20;;;;;;5089326;28;20358;-51
2021/09/13 08:30:47;;;;;;;9.38;2.45;;;24.60;96.00;;;;;;5089544;28;20153;-51
2021/09/13 08:33:13;;;;;;;4.22;1.90;;;24.50;95.70;;;;;;5082663;28;20047;-53
2021/09/13 08:35:39;;;;;;;3.80;2.05;;;24.60;95.80;;;;;;5081217;28;20028;-52
2021/09/13 08:38:04;;;;;;;5.32;1.90;;;24.50;95.50;;;;;;5090388;28;20024;-51
2021/09/13 08:40:30;;;;;;;4.18;2.40;;;24.60;96.00;;;;;;5089698;28;20020;-54
2021/09/13 08:42:58;;;;;;;8.00;3.83;;;24.80;95.80;;;;;;5089628;28;20059;-51
2021/09/13 08:45:35;;;;;;;6.03;2.38;;;24.60;95.20;;;;;;5088078;28;20450;-50
2021/09/13 08:51:03;;;;;;;6.47;3.08;;;24.50;95.50;;;;;;5084985;28;20381;-49
2021/09/13 08:53:31;;;;;;;6.72;3.00;;;24.30;95.70;;;;;;5085651;28;20047;-57
2021/09/13 08:55:57;;;;;;;3.28;2.42;;;24.30;95.70;;;;;;5085065;28;20028;-54
2021/09/13 08:58:24;;;;;;;5.05;3.25;;;24.20;96.60;;;;;;5085098;28;20043;-50
2021/09/13 09:00:51;;;;;;;5.40;3.35;;;24.40;95.80;;;;;;5087508;28;20020;-50
2021/09/13 09:03:17;;;;;;;3.88;3.40;;;24.40;95.60;;;;;;5071214;28;20100;-50
2021/09/13 09:05:48;;;;;;;5.47;3.22;;;24.40;95.80;;;;;;5070167;28;20040;-50
2021/09/13 09:08:36;;;;;;;7.38;4.32;;;24.60;95.80;;;;;;5071024;28;20020;-50
2021/09/13 09:11:04;;;;;;;6.78;3.95;;;24.70;95.60;;;;;;5071001;28;20112;-50
2021/09/13 09:13:44;;;;;;;10.35;3.58;;;25.00;95.80;;;;;;5071689;28;20057;-55
2021/09/13 09:16:13;;;;;;;6.03;4.38;;;25.20;97.10;;;;;;5091147;28;20024;-55
2021/09/13 09:18:42;;;;;;;5.60;3.75;;;25.20;96.80;;;;;;5090171;28;20543;-55
2021/09/13 09:21:09;;;;;;;10.35;3.25;;;25.20;97.10;;;;;;5091231;28;20028;-54
2021/09/13 09:23:54;;;;;;;5.35;3.15;;;25.20;96.40;;;;;;5072501;28;20119;-53
2021/09/13 09:26:20;;;;;;;7.40;3.67;;;25.30;96.00;;;;;;5091189;28;20467;-54
2021/09/13 09:28:46;;;;;;;12.65;3.85;;;25.40;96.10;;;;;;5088720;28;20119;-55
2021/09/13 09:31:11;;;;;;;23.92;6.15;;;25.50;96.20;;;;;;5090384;28;20054;-55
2021/09/13 09:33:38;;;;;;;4.93;3.20;;;25.40;94.60;;;;;;5090149;28;20024;-55
2021/09/13 09:36:12;;;;;;;7.05;3.55;;;25.50;96.00;;;;;;5088914;28;20031;-53
2021/09/13 09:38:40;;;;;;;8.05;3.65;;;25.50;94.50;;;;;;5088839;28;20034;-53
2021/09/13 09:41:11;;;;;;;25.33;7.53;;;25.40;95.50;;;;;;5090726;28;20038;-49
2021/09/13 09:43:58;;;;;;;8.98;4.68;;;25.50;97.30;;;;;;5089157;28;20063;-50
2021/09/13 09:46:44;;;;;;;33.65;8.13;;;25.70;95.30;;;;;;5090204;28;20535;-50
2021/09/13 09:49:15;;;;;;;11.65;4.45;;;25.80;99.90;;;;;;5090877;28;20031;-50
2021/09/13 09:51:45;;;;;;;15.85;4.78;;;25.80;97.50;;;;;;5084723;28;20443;-53
2021/09/13 09:54:15;;;;;;;6.85;3.92;;;26.00;99.90;;;;;;5076525;28;20020;-52
2021/09/13 09:56:42;;;;;;;12.77;4.43;;;26.00;96.40;;;;;;5090148;28;20028;-52
2021/09/13 09:59:10;;;;;;;10.68;3.97;;;25.90;97.20;;;;;;5090339;28;20107;-52
2021/09/13 10:01:41;;;;;;;7.22;3.47;;;26.00;95.90;;;;;;5088733;28;20032;-52
2021/09/13 10:04:22;;;;;;;6.85;3.70;;;26.20;99.10;;;;;;5089999;28;20036;-52
2021/09/13 10:06:59;;;;;;;7.95;3.35;;;26.50;94.10;;;;;;5088598;28;20040;-53
2021/09/13 10:09:28;;;;;;;4.75;3.05;;;26.50;93.00;;;;;;5090110;28;20043;-54
2021/09/13 10:11:56;;;;;;;4.90;3.45;;;26.70;96.90;;;;;;5089330;28;20380;-54
2021/09/13 10:14:25;;;;;;;4.60;3.75;;;26.40;92.90;;;;;;5088317;28;20032;-69
2021/09/13 10:16:51;;;;;;;6.60;2.95;;;26.50;92.80;;;;;;5088497;28;20176;-67
2021/09/13 10:19:19;;;;;;;4.55;2.80;;;26.70;92.50;;;;;;5088510;28;20110;-67
2021/09/13 10:21:45;;;;;;;3.80;2.38;;;26.90;92.20;;;;;;5088153;28;20031;-67
2021/09/13 10:24:14;;;;;;;6.80;2.67;;;27.10;92.20;;;;;;5088739;28;20084;-68
2021/09/13 10:26:50;;;;;;;7.25;2.95;;;27.00;91.90;;;;;;5089178;28;20196;-69
2021/09/13 10:29:22;;;;;;;9.77;2.78;;;27.00;91.30;;;;;;5090458;28;20103;-68
2021/09/13 10:31:47;;;;;;;9.95;2.60;;;27.20;90.60;;;;;;5089807;28;20174;-68
2021/09/13 10:34:21;;;;;;;5.93;2.35;;;27.40;90.30;;;;;;5089022;28;20062;-68
2021/09/13 10:36:59;;;;;;;7.97;2.67;;;27.50;90.40;;;;;;5088257;28;20123;-68
2021/09/13 10:40:00;;;;;;;5.35;2.35;;;27.70;89.90;;;;;;5088553;28;20077;-68
2021/09/13 10:42:29;;;;;;;3.60;1.80;;;27.80;90.10;;;;;;5088776;28;20066;-68
2021/09/13 10:45:13;;;;;;;5.65;2.60;;;27.90;87.50;;;;;;5089168;28;20024;-69
2021/09/13 10:47:43;;;;;;;3.95;2.10;;;27.70;87.60;;;;;;5090861;28;20032;-68
2021/09/13 10:50:27;;;;;;;2.08;1.88;;;27.90;87.50;;;;;;5092693;28;20024;-68
2021/09/13 10:52:57;;;;;;;4.30;2.58;;;27.90;86.90;;;;;;5092103;28;20159;-69
2021/09/13 10:55:41;;;;;;;3.83;2.00;;;28.10;86.00;;;;;;5092280;28;20020;-68
2021/09/13 10:58:10;;;;;;;2.58;2.30;;;28.10;86.00;;;;;;5094248;28;20104;-69
2021/09/13 11:00:44;;;;;;;3.65;2.30;;;28.20;85.20;;;;;;5091906;28;20024;-67
2021/09/13 11:03:32;;;;;;;2.70;2.05;;;28.10;85.50;;;;;;5092261;28;20052;-67
2021/09/13 11:06:16;;;;;;;3.30;1.98;;;28.40;83.50;;;;;;5091643;28;20051;-69
2021/09/13 11:09:01;;;;;;;11.00;2.60;;;28.50;82.40;;;;;;5091830;28;20066;-67
2021/09/13 11:11:31;;;;;;;5.90;2.70;;;28.40;83.50;;;;;;5093494;28;20024;-68
2021/09/13 11:14:11;;;;;;;;;;;28.30;84.20;;;;;;5092085;28;20024;-68
2021/09/13 11:16:45;;;;;;;4.50;2.13;;;28.00;82.80;;;;;;5091471;28;19904;-67
2021/09/13 11:19:12;;;;;;;8.52;1.77;;;27.70;84.70;;;;;;5091899;28;20024;-68
2021/09/13 11:21:45;;;;;;;4.10;2.00;;;27.90;85.00;;;;;;5091189;28;20020;-68
2021/09/13 11:24:25;;;;;;;7.38;2.55;;;28.30;84.40;;;;;;5092053;28;20190;-68
2021/09/13 11:26:59;;;;;;;6.67;1.97;;;28.50;82.50;;;;;;5051285;28;20136;-68
2021/09/13 11:29:26;;;;;;;1.90;1.58;;;28.60;82.40;;;;;;5052999;28;20288;-69
2021/09/13 11:32:05;;;;;;;5.28;1.80;;;28.70;82.10;;;;;;5051840;28;20104;-70
2021/09/13 11:34:37;;;;;;;3.78;1.98;;;28.70;81.00;;;;;;5051526;28;20036;-69
2021/09/13 11:37:09;;;;;;;3.08;1.73;;;28.80;80.90;;;;;;5053312;28;20033;-69
2021/09/13 11:39:47;;;;;;;3.45;1.88;;;28.60;80.40;;;;;;5051369;28;20025;-69
2021/09/13 11:42:16;;;;;;;4.93;1.90;;;28.80;79.60;;;;;;5051223;28;20382;-69
2021/09/13 11:44:47;;;;;;;3.10;1.98;;;28.90;79.30;;;;;;5052257;28;20113;-69
2021/09/13 11:47:18;;;;;;;4.22;1.25;;;28.90;79.40;;;;;;5051290;28;20056;-70
2021/09/13 11:49:47;;;;;;;5.80;1.80;;;28.90;79.30;;;;;;5051970;28;20094;-69
2021/09/13 11:52:23;;;;;;;8.48;2.15;;;29.00;79.30;;;;;;5051501;28;20036;-68
2021/09/13 11:54:48;;;;;;;4.53;1.75;;;28.80;78.60;;;;;;5050677;28;20461;-69
2021/09/13 11:57:24;;;;;;;3.80;1.70;;;28.90;78.00;;;;;;5050997;28;20107;-69
2021/09/13 11:59:55;;;;;;;7.90;1.70;;;28.90;78.20;;;;;;5052101;28;20036;-69
2021/09/13 12:02:22;;;;;;;5.07;1.75;;;29.00;79.10;;;;;;5052684;28;20461;-69
2021/09/13 12:04:50;;;;;;;1.98;1.73;;;29.40;78.50;;;;;;5050578;28;20124;-69
2021/09/13 12:07:16;;;;;;;3.28;1.40;;;29.50;77.80;;;;;;5050871;28;20041;-69
2021/09/13 12:09:44;;;;;;;5.10;1.98;;;29.30;77.30;;;;;;5050227;28;20386;-70
2021/09/13 12:12:23;;;;;;;4.25;2.28;;;29.40;76.40;;;;;;5050376;28;20112;-69
2021/09/13 12:14:53;;;;;;;6.25;1.55;;;29.60;76.40;;;;;;5050219;28;20064;-68
2021/09/13 12:17:20;;;;;;;2.75;1.60;;;29.70;76.20;;;;;;5050698;28;20025;-69
2021/09/13 12:20:10;;;;;;;2.30;1.63;;;29.70;75.40;;;;;;5050028;28;20536;-68
2021/09/13 12:22:36;;;;;;;4.75;1.15;;;29.80;75.40;;;;;;5052173;28;20474;-69
2021/09/13 12:25:10;;;;;;;3.15;1.58;;;29.70;74.60;;;;;;5062234;28;20059;-68
2021/09/13 12:27:44;;;;;;;4.22;1.70;;;29.70;73.80;;;;;;5090460;28;20071;-68
2021/09/13 12:30:26;;;;;;;3.05;1.48;;;29.70;74.50;;;;;;5090618;28;20024;-68
2021/09/13 12:33:01;;;;;;;2.28;1.27;;;29.70;74.70;;;;;;5089593;28;20413;-68
2021/09/13 12:35:36;;;;;;;3.55;1.33;;;29.90;74.00;;;;;;5091759;28;20027;-69
2021/09/13 12:38:09;;;;;;;3.47;1.50;;;29.80;74.10;;;;;;5089332;28;20024;-68
2021/09/13 12:40:53;;;;;;;2.05;1.40;;;29.80;73.50;;;;;;5090318;28;20117;-69
2021/09/13 12:43:22;;;;;;;2.90;1.33;;;29.80;73.90;;;;;;5090509;28;20031;-69
2021/09/13 12:45:48;;;;;;;2.97;1.80;;;29.80;74.60;;;;;;5090923;28;20036;-69
2021/09/13 12:48:24;;;;;;;1.85;1.38;;;30.00;73.60;;;;;;5090508;28;20020;-69
2021/09/13 12:50:53;;;;;;;2.03;1.55;;;30.10;73.50;;;;;;5089820;28;20035;-69
2021/09/13 12:53:21;;;;;;;1.83;1.23;;;30.00;72.90;;;;;;5091723;28;20369;-68
2021/09/13 12:55:47;;;;;;;13.77;2.53;;;30.00;73.40;;;;;;5091426;28;20028;-69